sensor_id;sensor_type;location;lat;lon;timestamp;P1;durP1;ratioP1;P2;durP2;ratioP2
14306;SDS011;7237;49.500;11.400;2023-05-10T00:00:47;2.00;;;1.90;;
14306;SDS011;7237;49.500;11.400;2023-05-10T00:03:14;3.77;;;2.30;;
14306;SDS011;7237;49.500;11.400;2023-05-10T00:05:41;6.03;;;2.30;;
14306;SDS011;7237;49.500;11.400;2023-05-10T00:08:08;4.83;;;2.57;;
14306;SDS011;7237;49.500;11.400;2023-05-10T00:10:35;6.23;;;2.47;;
14306;SDS011;7237;49.500;11.400;2023-05-10T00:13:03;2.20;;;2.00;;
14306;SDS011;7237;49.500;11.400;2023-05-10T00:15:30;2.70;;;2.50;;
14306;SDS011;7237;49.500;11.400;2023-05-10T00:17:58;2.90;;;2.10;;
14306;SDS011;7237;49.500;11.400;2023-05-10T00:20:25;4.63;;;2.23;;
14306;SDS011;7237;49.500;11.400;2023-05-10T00:22:53;2.30;;;1.97;;
14306;SDS011;7237;49.500;11.400;2023-05-10T00:25:20;2.63;;;2.00;;
14306;SDS011;7237;49.500;11.400;2023-05-10T00:27:47;2.47;;;2.27;;
14306;SDS011;7237;49.500;11.400;2023-05-10T00:30:14;2.67;;;2.30;;
14306;SDS011;7237;49.500;11.400;2023-05-10T00:32:41;4.03;;;2.17;;
14306;SDS011;7237;49.500;11.400;2023-05-10T00:35:10;2.53;;;2.30;;
14306;SDS011;7237;49.500;11.400;2023-05-10T00:37:37;2.57;;;2.23;;
14306;SDS011;7237;49.500;11.400;2023-05-10T00:40:05;3.47;;;2.43;;
14306;SDS011;7237;49.500;11.400;2023-05-10T00:42:32;3.00;;;2.10;;
14306;SDS011;7237;49.500;11.400;2023-05-10T00:44:59;2.30;;;2.10;;
14306;SDS011;7237;49.500;11.400;2023-05-10T00:47:26;2.60;;;2.40;;
14306;SDS011;7237;49.500;11.400;2023-05-10T00:49:53;4.77;;;2.43;;
14306;SDS011;7237;49.500;11.400;2023-05-10T00:52:22;3.53;;;2.43;;
14306;SDS011;7237;49.500;11.400;2023-05-10T00:54:50;3.57;;;2.30;;
14306;SDS011;7237;49.500;11.400;2023-05-10T00:57:17;3.83;;;2.10;;
14306;SDS011;7237;49.500;11.400;2023-05-10T00:59:45;4.20;;;2.27;;
14306;SDS011;7237;49.500;11.400;2023-05-10T01:02:12;3.50;;;2.10;;
14306;SDS011;7237;49.500;11.400;2023-05-10T01:04:39;5.50;;;2.87;;
14306;SDS011;7237;49.500;11.400;2023-05-10T01:07:07;2.37;;;2.17;;
14306;SDS011;7237;49.500;11.400;2023-05-10T01:09:35;3.23;;;2.53;;
14306;SDS011;7237;49.500;11.400;2023-05-10T01:12:02;2.50;;;2.30;;
14306;SDS011;7237;49.500;11.400;2023-05-10T01:14:31;2.70;;;2.30;;
14306;SDS011;7237;49.500;11.400;2023-05-10T01:16:59;2.57;;;2.37;;
14306;SDS011;7237;49.500;11.400;2023-05-10T01:19:28;4.33;;;2.23;;
14306;SDS011;7237;49.500;11.400;2023-05-10T01:21:58;2.53;;;2.33;;
14306;SDS011;7237;49.500;11.400;2023-05-10T01:24:45;2.60;;;2.40;;
14306;SDS011;7237;49.500;11.400;2023-05-10T01:27:41;5.07;;;2.80;;
14306;SDS011;7237;49.500;11.400;2023-05-10T01:32:58;2.87;;;2.63;;
14306;SDS011;7237;49.500;11.400;2023-05-10T01:35:30;3.00;;;2.70;;
14306;SDS011;7237;49.500;11.400;2023-05-10T01:37:59;3.03;;;2.50;;
14306;SDS011;7237;49.500;11.400;2023-05-10T01:40:32;3.13;;;2.60;;
14306;SDS011;7237;49.500;11.400;2023-05-10T01:43:02;2.73;;;2.53;;
14306;SDS011;7237;49.500;11.400;2023-05-10T01:45:31;2.70;;;2.50;;
14306;SDS011;7237;49.500;11.400;2023-05-10T01:48:01;4.67;;;2.87;;
14306;SDS011;7237;49.500;11.400;2023-05-10T01:50:31;3.43;;;2.30;;
14306;SDS011;7237;49.500;11.400;2023-05-10T01:52:59;3.03;;;2.67;;
14306;SDS011;7237;49.500;11.400;2023-05-10T01:55:28;2.67;;;2.37;;
14306;SDS011;7237;49.500;11.400;2023-05-10T01:57:58;4.70;;;2.43;;
14306;SDS011;7237;49.500;11.400;2023-05-10T02:00:25;3.60;;;2.73;;
14306;SDS011;7237;49.500;11.400;2023-05-10T02:02:53;3.40;;;3.10;;
14306;SDS011;7237;49.500;11.400;2023-05-10T02:05:22;4.93;;;3.20;;
14306;SDS011;7237;49.500;11.400;2023-05-10T02:07:49;5.30;;;2.70;;
14306;SDS011;7237;49.500;11.400;2023-05-10T02:10:18;3.43;;;2.57;;
14306;SDS011;7237;49.500;11.400;2023-05-10T02:12:46;3.10;;;2.90;;
14306;SDS011;7237;49.500;11.400;2023-05-10T02:15:15;5.53;;;3.20;;
14306;SDS011;7237;49.500;11.400;2023-05-10T02:17:44;6.60;;;2.97;;
14306;SDS011;7237;49.500;11.400;2023-05-10T02:20:12;3.73;;;3.17;;
14306;SDS011;7237;49.500;11.400;2023-05-10T02:22:42;4.73;;;3.17;;
14306;SDS011;7237;49.500;11.400;2023-05-10T02:25:09;4.80;;;3.03;;
14306;SDS011;7237;49.500;11.400;2023-05-10T02:27:37;4.27;;;3.40;;
14306;SDS011;7237;49.500;11.400;2023-05-10T02:30:05;3.63;;;3.27;;
14306;SDS011;7237;49.500;11.400;2023-05-10T02:32:33;3.60;;;3.30;;
14306;SDS011;7237;49.500;11.400;2023-05-10T02:35:01;4.23;;;2.90;;
14306;SDS011;7237;49.500;11.400;2023-05-10T02:37:29;4.20;;;3.60;;
14306;SDS011;7237;49.500;11.400;2023-05-10T02:39:58;3.60;;;3.30;;
14306;SDS011;7237;49.500;11.400;2023-05-10T02:42:28;3.60;;;3.20;;
14306;SDS011;7237;49.500;11.400;2023-05-10T02:44:56;3.87;;;3.47;;
14306;SDS011;7237;49.500;11.400;2023-05-10T02:47:26;4.30;;;3.83;;
14306;SDS011;7237;49.500;11.400;2023-05-10T02:49:53;3.93;;;3.53;;
14306;SDS011;7237;49.500;11.400;2023-05-10T02:52:21;3.80;;;3.50;;
14306;SDS011;7237;49.500;11.400;2023-05-10T02:54:50;3.70;;;3.40;;
14306;SDS011;7237;49.500;11.400;2023-05-10T02:57:22;5.60;;;3.60;;
14306;SDS011;7237;49.500;11.400;2023-05-10T02:59:51;4.67;;;3.97;;
14306;SDS011;7237;49.500;11.400;2023-05-10T03:02:19;6.47;;;3.90;;
14306;SDS011;7237;49.500;11.400;2023-05-10T03:04:46;4.50;;;4.20;;
14306;SDS011;7237;49.500;11.400;2023-05-10T03:07:13;4.87;;;4.00;;
14306;SDS011;7237;49.500;11.400;2023-05-10T03:09:41;4.70;;;3.90;;
14306;SDS011;7237;49.500;11.400;2023-05-10T03:12:10;4.17;;;3.87;;
14306;SDS011;7237;49.500;11.400;2023-05-10T03:14:45;4.53;;;4.13;;
14306;SDS011;7237;49.500;11.400;2023-05-10T03:17:15;4.20;;;3.80;;
14306;SDS011;7237;49.500;11.400;2023-05-10T03:19:43;4.53;;;4.13;;
14306;SDS011;7237;49.500;11.400;2023-05-10T03:22:12;5.33;;;4.43;;
14306;SDS011;7237;49.500;11.400;2023-05-10T03:24:39;4.80;;;4.30;;
14306;SDS011;7237;49.500;11.400;2023-05-10T03:27:07;4.03;;;3.73;;
14306;SDS011;7237;49.500;11.400;2023-05-10T03:29:35;6.37;;;4.60;;
14306;SDS011;7237;49.500;11.400;2023-05-10T03:32:04;4.93;;;4.37;;
14306;SDS011;7237;49.500;11.400;2023-05-10T03:34:31;4.57;;;4.17;;
14306;SDS011;7237;49.500;11.400;2023-05-10T03:36:58;5.10;;;4.60;;
14306;SDS011;7237;49.500;11.400;2023-05-10T03:39:25;4.90;;;4.50;;
14306;SDS011;7237;49.500;11.400;2023-05-10T03:41:52;4.97;;;4.57;;
14306;SDS011;7237;49.500;11.400;2023-05-10T03:44:19;4.83;;;4.20;;
14306;SDS011;7237;49.500;11.400;2023-05-10T03:46:46;4.53;;;4.13;;
14306;SDS011;7237;49.500;11.400;2023-05-10T03:49:15;5.27;;;4.50;;
14306;SDS011;7237;49.500;11.400;2023-05-10T03:51:42;4.10;;;3.70;;
14306;SDS011;7237;49.500;11.400;2023-05-10T03:54:09;5.23;;;4.00;;
14306;SDS011;7237;49.500;11.400;2023-05-10T03:56:36;4.83;;;4.03;;
14306;SDS011;7237;49.500;11.400;2023-05-10T03:59:03;4.43;;;3.80;;
14306;SDS011;7237;49.500;11.400;2023-05-10T04:01:32;5.43;;;4.50;;
14306;SDS011;7237;49.500;11.400;2023-05-10T04:03:59;5.57;;;3.80;;
14306;SDS011;7237;49.500;11.400;2023-05-10T04:06:27;5.77;;;4.10;;
14306;SDS011;7237;49.500;11.400;2023-05-10T04:08:54;5.10;;;4.57;;
14306;SDS011;7237;49.500;11.400;2023-05-10T04:11:24;4.43;;;4.03;;
14306;SDS011;7237;49.500;11.400;2023-05-10T04:13:51;4.73;;;4.23;;
14306;SDS011;7237;49.500;11.400;2023-05-10T04:16:18;5.03;;;4.20;;
14306;SDS011;7237;49.500;11.400;2023-05-10T04:18:45;4.63;;;4.23;;
14306;SDS011;7237;49.500;11.400;2023-05-10T04:21:13;5.70;;;4.93;;
14306;SDS011;7237;49.500;11.400;2023-05-10T04:23:41;4.90;;;4.50;;
14306;SDS011;7237;49.500;11.400;2023-05-10T04:26:08;4.93;;;4.53;;
14306;SDS011;7237;49.500;11.400;2023-05-10T04:28:35;5.43;;;4.93;;
14306;SDS011;7237;49.500;11.400;2023-05-10T04:31:02;6.77;;;4.93;;
14306;SDS011;7237;49.500;11.400;2023-05-10T04:33:30;7.10;;;4.83;;
14306;SDS011;7237;49.500;11.400;2023-05-10T04:35:57;5.77;;;4.57;;
14306;SDS011;7237;49.500;11.400;2023-05-10T04:38:24;7.33;;;5.30;;
14306;SDS011;7237;49.500;11.400;2023-05-10T04:40:53;5.47;;;4.63;;
14306;SDS011;7237;49.500;11.400;2023-05-10T04:43:20;4.10;;;3.70;;
14306;SDS011;7237;49.500;11.400;2023-05-10T04:45:47;3.60;;;3.03;;
14306;SDS011;7237;49.500;11.400;2023-05-10T04:48:15;3.67;;;2.30;;
14306;SDS011;7237;49.500;11.400;2023-05-10T04:50:42;1.63;;;1.53;;
14306;SDS011;7237;49.500;11.400;2023-05-10T04:53:09;1.77;;;1.67;;
14306;SDS011;7237;49.500;11.400;2023-05-10T04:55:36;2.87;;;1.50;;
14306;SDS011;7237;49.500;11.400;2023-05-10T04:58:04;1.50;;;1.40;;
14306;SDS011;7237;49.500;11.400;2023-05-10T05:00:32;1.37;;;1.30;;
14306;SDS011;7237;49.500;11.400;2023-05-10T05:03:00;1.07;;;1.07;;
14306;SDS011;7237;49.500;11.400;2023-05-10T05:05:27;1.23;;;1.23;;
14306;SDS011;7237;49.500;11.400;2023-05-10T05:07:54;1.90;;;1.17;;
14306;SDS011;7237;49.500;11.400;2023-05-10T05:10:21;1.20;;;1.10;;
14306;SDS011;7237;49.500;11.400;2023-05-10T05:12:48;1.10;;;1.00;;
14306;SDS011;7237;49.500;11.400;2023-05-10T05:15:16;1.10;;;1.10;;
14306;SDS011;7237;49.500;11.400;2023-05-10T05:17:43;1.00;;;1.00;;
14306;SDS011;7237;49.500;11.400;2023-05-10T05:20:10;1.33;;;1.17;;
14306;SDS011;7237;49.500;11.400;2023-05-10T05:22:38;1.50;;;1.20;;
14306;SDS011;7237;49.500;11.400;2023-05-10T05:25:05;1.10;;;1.00;;
14306;SDS011;7237;49.500;11.400;2023-05-10T05:27:32;0.97;;;0.97;;
14306;SDS011;7237;49.500;11.400;2023-05-10T05:29:59;0.70;;;0.70;;
14306;SDS011;7237;49.500;11.400;2023-05-10T05:32:28;1.07;;;0.97;;
14306;SDS011;7237;49.500;11.400;2023-05-10T05:34:55;0.67;;;0.67;;
14306;SDS011;7237;49.500;11.400;2023-05-10T05:37:22;2.40;;;0.80;;
14306;SDS011;7237;49.500;11.400;2023-05-10T05:39:49;1.40;;;1.30;;
14306;SDS011;7237;49.500;11.400;2023-05-10T05:42:16;0.90;;;0.90;;
14306;SDS011;7237;49.500;11.400;2023-05-10T05:44:43;0.80;;;0.80;;
14306;SDS011;7237;49.500;11.400;2023-05-10T05:47:10;0.60;;;0.60;;
14306;SDS011;7237;49.500;11.400;2023-05-10T05:49:39;0.90;;;0.90;;
14306;SDS011;7237;49.500;11.400;2023-05-10T05:52:06;0.70;;;0.70;;
14306;SDS011;7237;49.500;11.400;2023-05-10T05:54:33;4.23;;;0.60;;
14306;SDS011;7237;49.500;11.400;2023-05-10T05:57:00;1.07;;;0.57;;
14306;SDS011;7237;49.500;11.400;2023-05-10T05:59:27;1.50;;;0.67;;
14306;SDS011;7237;49.500;11.400;2023-05-10T06:01:54;1.07;;;0.70;;
14306;SDS011;7237;49.500;11.400;2023-05-10T06:04:21;0.73;;;0.67;;
14306;SDS011;7237;49.500;11.400;2023-05-10T06:06:50;0.53;;;0.53;;
14306;SDS011;7237;49.500;11.400;2023-05-10T06:09:17;0.70;;;0.70;;
14306;SDS011;7237;49.500;11.400;2023-05-10T06:11:44;1.83;;;0.63;;
14306;SDS011;7237;49.500;11.400;2023-05-10T06:14:11;0.63;;;0.60;;
14306;SDS011;7237;49.500;11.400;2023-05-10T06:16:38;0.70;;;0.70;;
14306;SDS011;7237;49.500;11.400;2023-05-10T06:19:05;0.90;;;0.70;;
14306;SDS011;7237;49.500;11.400;2023-05-10T06:21:32;0.63;;;0.63;;
14306;SDS011;7237;49.500;11.400;2023-05-10T06:24:00;0.73;;;0.73;;
14306;SDS011;7237;49.500;11.400;2023-05-10T06:26:28;0.83;;;0.83;;
14306;SDS011;7237;49.500;11.400;2023-05-10T06:28:55;2.13;;;1.00;;
14306;SDS011;7237;49.500;11.400;2023-05-10T06:31:22;0.93;;;0.70;;
14306;SDS011;7237;49.500;11.400;2023-05-10T06:33:49;1.03;;;0.90;;
14306;SDS011;7237;49.500;11.400;2023-05-10T06:36:16;1.00;;;1.00;;
14306;SDS011;7237;49.500;11.400;2023-05-10T06:38:43;0.73;;;0.73;;
14306;SDS011;7237;49.500;11.400;2023-05-10T06:41:11;0.60;;;0.60;;
14306;SDS011;7237;49.500;11.400;2023-05-10T06:43:38;0.50;;;0.50;;
14306;SDS011;7237;49.500;11.400;2023-05-10T06:46:06;5.63;;;0.90;;
14306;SDS011;7237;49.500;11.400;2023-05-10T06:48:33;0.60;;;0.60;;
14306;SDS011;7237;49.500;11.400;2023-05-10T06:51:00;0.60;;;0.60;;
14306;SDS011;7237;49.500;11.400;2023-05-10T06:53:27;1.13;;;0.60;;
14306;SDS011;7237;49.500;11.400;2023-05-10T06:55:54;0.57;;;0.57;;
14306;SDS011;7237;49.500;11.400;2023-05-10T06:58:23;1.73;;;1.00;;
14306;SDS011;7237;49.500;11.400;2023-05-10T07:00:50;2.87;;;0.70;;
14306;SDS011;7237;49.500;11.400;2023-05-10T07:03:17;2.30;;;0.70;;
14306;SDS011;7237;49.500;11.400;2023-05-10T07:05:44;2.70;;;0.60;;
14306;SDS011;7237;49.500;11.400;2023-05-10T07:08:11;0.37;;;0.37;;
14306;SDS011;7237;49.500;11.400;2023-05-10T07:10:39;0.50;;;0.50;;
14306;SDS011;7237;49.500;11.400;2023-05-10T07:13:06;0.80;;;0.80;;
14306;SDS011;7237;49.500;11.400;2023-05-10T07:15:34;0.70;;;0.70;;
14306;SDS011;7237;49.500;11.400;2023-05-10T07:18:01;0.60;;;0.60;;
14306;SDS011;7237;49.500;11.400;2023-05-10T07:20:30;1.83;;;0.60;;
14306;SDS011;7237;49.500;11.400;2023-05-10T07:22:57;0.70;;;0.70;;
14306;SDS011;7237;49.500;11.400;2023-05-10T07:25:24;0.70;;;0.70;;
14306;SDS011;7237;49.500;11.400;2023-05-10T07:27:51;2.30;;;0.77;;
14306;SDS011;7237;49.500;11.400;2023-05-10T07:30:18;0.80;;;0.60;;
14306;SDS011;7237;49.500;11.400;2023-05-10T07:32:47;0.70;;;0.70;;
14306;SDS011;7237;49.500;11.400;2023-05-10T07:35:14;1.42;;;0.82;;
14306;SDS011;7237;49.500;11.400;2023-05-10T07:37:41;0.63;;;0.63;;
14306;SDS011;7237;49.500;11.400;2023-05-10T07:40:08;0.60;;;0.60;;
14306;SDS011;7237;49.500;11.400;2023-05-10T07:42:35;0.70;;;0.63;;
14306;SDS011;7237;49.500;11.400;2023-05-10T07:45:03;0.60;;;0.60;;
14306;SDS011;7237;49.500;11.400;2023-05-10T07:47:30;0.85;;;0.52;;
14306;SDS011;7237;49.500;11.400;2023-05-10T07:49:58;0.73;;;0.70;;
14306;SDS011;7237;49.500;11.400;2023-05-10T07:52:26;0.57;;;0.50;;
14306;SDS011;7237;49.500;11.400;2023-05-10T07:54:53;1.10;;;0.68;;
14306;SDS011;7237;49.500;11.400;2023-05-10T07:57:21;0.68;;;0.68;;
14306;SDS011;7237;49.500;11.400;2023-05-10T07:59:48;0.90;;;0.70;;
14306;SDS011;7237;49.500;11.400;2023-05-10T08:02:15;0.75;;;0.70;;
14306;SDS011;7237;49.500;11.400;2023-05-10T08:04:42;0.73;;;0.73;;
14306;SDS011;7237;49.500;11.400;2023-05-10T08:07:11;1.95;;;0.65;;
14306;SDS011;7237;49.500;11.400;2023-05-10T08:09:38;1.27;;;0.60;;
14306;SDS011;7237;49.500;11.400;2023-05-10T08:12:05;0.98;;;0.60;;
14306;SDS011;7237;49.500;11.400;2023-05-10T08:14:32;1.42;;;0.55;;
14306;SDS011;7237;49.500;11.400;2023-05-10T08:17:01;0.50;;;0.50;;
14306;SDS011;7237;49.500;11.400;2023-05-10T08:19:28;0.47;;;0.47;;
14306;SDS011;7237;49.500;11.400;2023-05-10T08:21:55;0.73;;;0.73;;
14306;SDS011;7237;49.500;11.400;2023-05-10T08:24:24;0.77;;;0.50;;
14306;SDS011;7237;49.500;11.400;2023-05-10T08:26:51;1.30;;;0.68;;
14306;SDS011;7237;49.500;11.400;2023-05-10T08:29:18;0.90;;;0.70;;
14306;SDS011;7237;49.500;11.400;2023-05-10T08:31:45;0.60;;;0.50;;
14306;SDS011;7237;49.500;11.400;2023-05-10T08:34:14;1.17;;;0.47;;
14306;SDS011;7237;49.500;11.400;2023-05-10T08:36:41;1.70;;;0.63;;
14306;SDS011;7237;49.500;11.400;2023-05-10T08:39:08;0.77;;;0.68;;
14306;SDS011;7237;49.500;11.400;2023-05-10T08:41:37;0.68;;;0.43;;
14306;SDS011;7237;49.500;11.400;2023-05-10T08:44:05;0.40;;;0.40;;
14306;SDS011;7237;49.500;11.400;2023-05-10T08:46:34;0.75;;;0.57;;
14306;SDS011;7237;49.500;11.400;2023-05-10T08:49:04;0.60;;;0.60;;
14306;SDS011;7237;49.500;11.400;2023-05-10T08:51:35;0.47;;;0.47;;
14306;SDS011;7237;49.500;11.400;2023-05-10T08:54:02;0.55;;;0.52;;
14306;SDS011;7237;49.500;11.400;2023-05-10T08:56:30;0.63;;;0.47;;
14306;SDS011;7237;49.500;11.400;2023-05-10T08:58:58;0.70;;;0.70;;
14306;SDS011;7237;49.500;11.400;2023-05-10T09:01:26;0.55;;;0.50;;
14306;SDS011;7237;49.500;11.400;2023-05-10T09:03:53;1.35;;;0.60;;
14306;SDS011;7237;49.500;11.400;2023-05-10T09:06:20;0.60;;;0.60;;
14306;SDS011;7237;49.500;11.400;2023-05-10T09:08:48;0.30;;;0.30;;
14306;SDS011;7237;49.500;11.400;2023-05-10T09:11:15;0.60;;;0.60;;
14306;SDS011;7237;49.500;11.400;2023-05-10T09:13:42;2.08;;;0.60;;
14306;SDS011;7237;49.500;11.400;2023-05-10T09:16:11;0.50;;;0.50;;
14306;SDS011;7237;49.500;11.400;2023-05-10T09:18:38;0.55;;;0.55;;
14306;SDS011;7237;49.500;11.400;2023-05-10T09:21:05;1.02;;;0.90;;
14306;SDS011;7237;49.500;11.400;2023-05-10T09:23:32;0.57;;;0.57;;
14306;SDS011;7237;49.500;11.400;2023-05-10T09:26:02;1.75;;;0.70;;
14306;SDS011;7237;49.500;11.400;2023-05-10T09:28:31;4.53;;;0.80;;
14306;SDS011;7237;49.500;11.400;2023-05-10T09:30:58;1.65;;;0.73;;
14306;SDS011;7237;49.500;11.400;2023-05-10T09:33:26;0.50;;;0.50;;
14306;SDS011;7237;49.500;11.400;2023-05-10T09:35:53;1.10;;;1.00;;
14306;SDS011;7237;49.500;11.400;2023-05-10T09:38:20;0.85;;;0.57;;
14306;SDS011;7237;49.500;11.400;2023-05-10T09:40:51;0.70;;;0.70;;
14306;SDS011;7237;49.500;11.400;2023-05-10T09:43:19;0.77;;;0.77;;
14306;SDS011;7237;49.500;11.400;2023-05-10T09:45:47;1.00;;;1.00;;
14306;SDS011;7237;49.500;11.400;2023-05-10T09:48:14;2.83;;;0.80;;
14306;SDS011;7237;49.500;11.400;2023-05-10T09:50:43;1.17;;;0.60;;
14306;SDS011;7237;49.500;11.400;2023-05-10T09:53:10;0.82;;;0.82;;
14306;SDS011;7237;49.500;11.400;2023-05-10T09:55:43;4.13;;;1.17;;
14306;SDS011;7237;49.500;11.400;2023-05-10T09:58:11;0.90;;;0.90;;
14306;SDS011;7237;49.500;11.400;2023-05-10T10:00:39;0.95;;;0.70;;
14306;SDS011;7237;49.500;11.400;2023-05-10T10:03:07;1.00;;;1.00;;
14306;SDS011;7237;49.500;11.400;2023-05-10T10:05:39;2.40;;;0.93;;
14306;SDS011;7237;49.500;11.400;2023-05-10T10:08:08;2.38;;;1.30;;
14306;SDS011;7237;49.500;11.400;2023-05-10T10:10:36;3.58;;;1.67;;
14306;SDS011;7237;49.500;11.400;2023-05-10T10:13:03;3.05;;;1.30;;
14306;SDS011;7237;49.500;11.400;2023-05-10T10:15:30;3.40;;;1.50;;
14306;SDS011;7237;49.500;11.400;2023-05-10T10:17:59;1.63;;;1.20;;
14306;SDS011;7237;49.500;11.400;2023-05-10T10:20:26;1.73;;;1.33;;
14306;SDS011;7237;49.500;11.400;2023-05-10T10:22:53;2.10;;;1.33;;
14306;SDS011;7237;49.500;11.400;2023-05-10T10:25:21;2.37;;;1.40;;
14306;SDS011;7237;49.500;11.400;2023-05-10T10:27:56;5.20;;;1.33;;
14306;SDS011;7237;49.500;11.400;2023-05-10T10:30:27;3.88;;;1.38;;
14306;SDS011;7237;49.500;11.400;2023-05-10T10:33:10;2.60;;;1.20;;
14306;SDS011;7237;49.500;11.400;2023-05-10T10:35:40;1.50;;;1.10;;
14306;SDS011;7237;49.500;11.400;2023-05-10T10:38:07;2.20;;;1.20;;
14306;SDS011;7237;49.500;11.400;2023-05-10T10:40:36;3.08;;;1.20;;
14306;SDS011;7237;49.500;11.400;2023-05-10T10:43:22;1.95;;;1.10;;
14306;SDS011;7237;49.500;11.400;2023-05-10T10:46:09;1.67;;;1.00;;
14306;SDS011;7237;49.500;11.400;2023-05-10T10:48:37;2.05;;;1.30;;
14306;SDS011;7237;49.500;11.400;2023-05-10T10:51:04;1.65;;;0.90;;
14306;SDS011;7237;49.500;11.400;2023-05-10T10:53:31;1.10;;;1.10;;
14306;SDS011;7237;49.500;11.400;2023-05-10T10:56:06;1.80;;;1.30;;
14306;SDS011;7237;49.500;11.400;2023-05-10T10:58:34;1.85;;;1.08;;
14306;SDS011;7237;49.500;11.400;2023-05-10T11:01:12;1.20;;;1.10;;
14306;SDS011;7237;49.500;11.400;2023-05-10T11:03:39;3.65;;;1.60;;
14306;SDS011;7237;49.500;11.400;2023-05-10T11:06:06;1.00;;;1.00;;
14306;SDS011;7237;49.500;11.400;2023-05-10T11:08:34;1.88;;;1.45;;
14306;SDS011;7237;49.500;11.400;2023-05-10T11:11:09;1.30;;;1.20;;
14306;SDS011;7237;49.500;11.400;2023-05-10T11:13:40;1.80;;;1.50;;
14306;SDS011;7237;49.500;11.400;2023-05-10T11:16:14;1.40;;;1.30;;
14306;SDS011;7237;49.500;11.400;2023-05-10T11:18:45;2.25;;;1.50;;
14306;SDS011;7237;49.500;11.400;2023-05-10T11:21:18;1.50;;;1.40;;
14306;SDS011;7237;49.500;11.400;2023-05-10T11:23:49;2.28;;;1.25;;
14306;SDS011;7237;49.500;11.400;2023-05-10T11:26:18;1.60;;;1.50;;
14306;SDS011;7237;49.500;11.400;2023-05-10T11:28:48;1.33;;;1.15;;
14306;SDS011;7237;49.500;11.400;2023-05-10T11:31:16;1.30;;;1.20;;
14306;SDS011;7237;49.500;11.400;2023-05-10T11:33:43;1.30;;;1.20;;
14306;SDS011;7237;49.500;11.400;2023-05-10T11:36:11;2.80;;;1.20;;
14306;SDS011;7237;49.500;11.400;2023-05-10T11:38:38;2.92;;;1.08;;
14306;SDS011;7237;49.500;11.400;2023-05-10T11:41:05;1.60;;;1.13;;
14306;SDS011;7237;49.500;11.400;2023-05-10T11:43:33;1.77;;;1.23;;
14306;SDS011;7237;49.500;11.400;2023-05-10T11:46:01;1.05;;;1.00;;
14306;SDS011;7237;49.500;11.400;2023-05-10T11:48:29;2.22;;;1.27;;
14306;SDS011;7237;49.500;11.400;2023-05-10T11:50:56;1.60;;;1.42;;
14306;SDS011;7237;49.500;11.400;2023-05-10T11:53:23;1.42;;;1.33;;
14306;SDS011;7237;49.500;11.400;2023-05-10T11:55:52;2.13;;;1.20;;
14306;SDS011;7237;49.500;11.400;2023-05-10T11:58:19;3.33;;;1.20;;
14306;SDS011;7237;49.500;11.400;2023-05-10T12:00:49;3.35;;;1.17;;
14306;SDS011;7237;49.500;11.400;2023-05-10T12:03:16;1.65;;;1.13;;
14306;SDS011;7237;49.500;11.400;2023-05-10T12:05:43;2.05;;;1.27;;
14306;SDS011;7237;49.500;11.400;2023-05-10T12:08:11;2.03;;;1.40;;
14306;SDS011;7237;49.500;11.400;2023-05-10T12:10:38;2.55;;;1.40;;
14306;SDS011;7237;49.500;11.400;2023-05-10T12:13:05;1.40;;;1.10;;
14306;SDS011;7237;49.500;11.400;2023-05-10T12:15:37;1.25;;;1.20;;
14306;SDS011;7237;49.500;11.400;2023-05-10T12:18:06;1.20;;;1.10;;
14306;SDS011;7237;49.500;11.400;2023-05-10T12:20:35;1.60;;;1.40;;
14306;SDS011;7237;49.500;11.400;2023-05-10T12:23:02;1.58;;;1.40;;
14306;SDS011;7237;49.500;11.400;2023-05-10T12:25:31;2.95;;;1.33;;
14306;SDS011;7237;49.500;11.400;2023-05-10T12:27:58;3.65;;;1.52;;
14306;SDS011;7237;49.500;11.400;2023-05-10T12:30:26;3.67;;;2.17;;
14306;SDS011;7237;49.500;11.400;2023-05-10T12:32:54;1.73;;;1.63;;
14306;SDS011;7237;49.500;11.400;2023-05-10T12:35:27;1.85;;;1.70;;
14306;SDS011;7237;49.500;11.400;2023-05-10T12:37:56;3.15;;;1.70;;
14306;SDS011;7237;49.500;11.400;2023-05-10T12:40:23;2.35;;;1.63;;
14306;SDS011;7237;49.500;11.400;2023-05-10T12:42:50;3.20;;;1.63;;
14306;SDS011;7237;49.500;11.400;2023-05-10T12:45:18;1.48;;;1.27;;
14306;SDS011;7237;49.500;11.400;2023-05-10T12:47:45;1.60;;;1.33;;
14306;SDS011;7237;49.500;11.400;2023-05-10T12:50:12;1.42;;;1.30;;
14306;SDS011;7237;49.500;11.400;2023-05-10T12:52:40;1.25;;;0.98;;
14306;SDS011;7237;49.500;11.400;2023-05-10T12:55:07;1.65;;;1.10;;
14306;SDS011;7237;49.500;11.400;2023-05-10T12:57:34;1.35;;;1.25;;
14306;SDS011;7237;49.500;11.400;2023-05-10T13:00:02;1.15;;;1.00;;
14306;SDS011;7237;49.500;11.400;2023-05-10T13:02:30;1.38;;;1.25;;
14306;SDS011;7237;49.500;11.400;2023-05-10T13:04:57;2.22;;;1.13;;
14306;SDS011;7237;49.500;11.400;2023-05-10T13:07:25;1.95;;;1.10;;
14306;SDS011;7237;49.500;11.400;2023-05-10T13:09:53;1.35;;;1.00;;
14306;SDS011;7237;49.500;11.400;2023-05-10T13:12:20;1.33;;;1.00;;
14306;SDS011;7237;49.500;11.400;2023-05-10T13:14:47;1.50;;;1.10;;
14306;SDS011;7237;49.500;11.400;2023-05-10T13:17:14;1.25;;;1.15;;
14306;SDS011;7237;49.500;11.400;2023-05-10T13:19:41;1.20;;;1.00;;
14306;SDS011;7237;49.500;11.400;2023-05-10T13:22:08;1.00;;;0.95;;
14306;SDS011;7237;49.500;11.400;2023-05-10T13:24:35;2.83;;;1.20;;
14306;SDS011;7237;49.500;11.400;2023-05-10T13:27:03;0.90;;;0.90;;
14306;SDS011;7237;49.500;11.400;2023-05-10T13:29:30;1.75;;;1.10;;
14306;SDS011;7237;49.500;11.400;2023-05-10T13:31:58;1.20;;;0.70;;
14306;SDS011;7237;49.500;11.400;2023-05-10T13:34:25;2.00;;;0.82;;
14306;SDS011;7237;49.500;11.400;2023-05-10T13:36:52;1.67;;;0.68;;
14306;SDS011;7237;49.500;11.400;2023-05-10T13:39:21;1.33;;;1.10;;
14306;SDS011;7237;49.500;11.400;2023-05-10T13:41:48;1.67;;;1.20;;
14306;SDS011;7237;49.500;11.400;2023-05-10T13:44:16;1.98;;;1.00;;
14306;SDS011;7237;49.500;11.400;2023-05-10T13:46:43;2.05;;;1.00;;
14306;SDS011;7237;49.500;11.400;2023-05-10T13:49:11;0.95;;;0.95;;
14306;SDS011;7237;49.500;11.400;2023-05-10T13:51:38;0.65;;;0.65;;
14306;SDS011;7237;49.500;11.400;2023-05-10T13:54:05;1.08;;;0.80;;
14306;SDS011;7237;49.500;11.400;2023-05-10T13:56:32;1.95;;;0.82;;
14306;SDS011;7237;49.500;11.400;2023-05-10T13:58:59;0.93;;;0.93;;
14306;SDS011;7237;49.500;11.400;2023-05-10T14:01:28;3.00;;;1.10;;
14306;SDS011;7237;49.500;11.400;2023-05-10T14:03:55;2.75;;;1.13;;
14306;SDS011;7237;49.500;11.400;2023-05-10T14:06:22;1.20;;;1.10;;
14306;SDS011;7237;49.500;11.400;2023-05-10T14:08:49;1.65;;;0.80;;
14306;SDS011;7237;49.500;11.400;2023-05-10T14:11:16;1.13;;;1.02;;
14306;SDS011;7237;49.500;11.400;2023-05-10T14:13:43;1.42;;;1.00;;
14306;SDS011;7237;49.500;11.400;2023-05-10T14:16:10;2.42;;;1.10;;
14306;SDS011;7237;49.500;11.400;2023-05-10T14:18:40;4.18;;;1.35;;
14306;SDS011;7237;49.500;11.400;2023-05-10T14:21:07;1.05;;;1.05;;
14306;SDS011;7237;49.500;11.400;2023-05-10T14:23:34;1.17;;;1.02;;
14306;SDS011;7237;49.500;11.400;2023-05-10T14:26:02;1.13;;;1.02;;
14306;SDS011;7237;49.500;11.400;2023-05-10T14:28:29;1.45;;;1.20;;
14306;SDS011;7237;49.500;11.400;2023-05-10T14:30:56;2.38;;;1.33;;
14306;SDS011;7237;49.500;11.400;2023-05-10T14:33:23;4.57;;;1.15;;
14306;SDS011;7237;49.500;11.400;2023-05-10T14:35:51;1.58;;;1.17;;
14306;SDS011;7237;49.500;11.400;2023-05-10T14:38:19;1.40;;;1.05;;
14306;SDS011;7237;49.500;11.400;2023-05-10T14:40:46;2.75;;;1.25;;
14306;SDS011;7237;49.500;11.400;2023-05-10T14:43:13;1.27;;;1.13;;
14306;SDS011;7237;49.500;11.400;2023-05-10T14:45:40;1.13;;;1.02;;
14306;SDS011;7237;49.500;11.400;2023-05-10T14:48:07;2.83;;;1.00;;
14306;SDS011;7237;49.500;11.400;2023-05-10T14:50:40;1.38;;;0.75;;
14306;SDS011;7237;49.500;11.400;2023-05-10T14:53:08;3.20;;;1.48;;
14306;SDS011;7237;49.500;11.400;2023-05-10T14:55:35;0.90;;;0.90;;